createdAt,value
2019-01-30T00:01:34.710Z,20.67
2019-01-30T00:04:11.352Z,18.67
2019-01-30T00:06:47.216Z,17.80
2019-01-30T00:09:22.227Z,24.77
2019-01-30T00:11:58.618Z,25.13
2019-01-30T00:14:33.582Z,17.47
2019-01-30T00:17:07.562Z,17.87
2019-01-30T00:19:40.852Z,18.93
2019-01-30T00:22:13.621Z,17.77
2019-01-30T00:24:46.807Z,21.07
2019-01-30T00:27:20.755Z,18.33
2019-01-30T00:30:03.647Z,21.00
2019-01-30T00:32:30.843Z,15.33
2019-01-30T00:35:06.842Z,19.37
2019-01-30T00:37:40.338Z,17.07
2019-01-30T00:40:14.232Z,20.77
2019-01-30T00:43:02.431Z,21.07
2019-01-30T00:45:51.847Z,26.17
2019-01-30T00:48:28.233Z,25.00
2019-01-30T00:51:01.074Z,20.10
2019-01-30T00:53:34.515Z,20.60
2019-01-30T00:56:08.127Z,19.00
2019-01-30T00:58:42.584Z,14.67
2019-01-30T01:01:15.695Z,18.43
2019-01-30T01:03:49.968Z,15.33
2019-01-30T01:06:22.802Z,19.43
2019-01-30T01:08:55.754Z,19.13
2019-01-30T01:11:29.066Z,17.33
2019-01-30T01:14:02.922Z,18.80
2019-01-30T01:16:36.608Z,20.33
2019-01-30T01:19:09.969Z,27.27
2019-01-30T01:21:42.879Z,18.47
2019-01-30T01:24:15.890Z,19.90
2019-01-30T01:26:48.800Z,19.50
2019-01-30T01:29:22.117Z,19.13
2019-01-30T01:31:55.316Z,20.80
2019-01-30T01:34:28.345Z,18.63
2019-01-30T01:37:01.166Z,19.23
2019-01-30T01:39:33.948Z,24.73
2019-01-30T01:42:07.417Z,20.00
2019-01-30T01:44:42.813Z,22.53
2019-01-30T01:47:18.795Z,21.77
2019-01-30T01:49:53.126Z,23.93
2019-01-30T01:52:26.357Z,20.20
2019-01-30T01:55:00.569Z,22.23
2019-01-30T01:57:34.286Z,23.40
2019-01-30T02:00:08.695Z,18.20
2019-01-30T02:02:43.305Z,19.13
2019-01-30T02:05:19.303Z,21.67
2019-01-30T02:07:52.314Z,23.57
2019-01-30T02:10:28.649Z,18.40
2019-01-30T02:13:01.644Z,19.43
2019-01-30T02:15:37.842Z,17.97
2019-01-30T02:18:12.685Z,19.97
2019-01-30T02:20:49.917Z,20.57
2019-01-30T02:23:24.850Z,19.93
2019-01-30T02:25:59.334Z,18.60
2019-01-30T02:28:33.419Z,18.33
2019-01-30T02:31:06.446Z,20.20
2019-01-30T02:33:39.811Z,19.53
2019-01-30T02:36:13.717Z,16.57
2019-01-30T02:38:48.033Z,20.10
2019-01-30T02:41:24.196Z,19.67
2019-01-30T02:44:01.886Z,18.73
2019-01-30T02:46:35.661Z,19.90
2019-01-30T02:49:12.348Z,20.33
2019-01-30T02:51:49.441Z,17.70
2019-01-30T02:54:23.564Z,19.97
2019-01-30T02:56:57.864Z,23.00
2019-01-30T02:59:32.492Z,20.30
2019-01-30T03:02:30.099Z,21.62
2019-01-30T03:05:03.261Z,22.20
2019-01-30T03:07:36.524Z,21.70
2019-01-30T03:10:12.711Z,23.97
2019-01-30T03:12:46.737Z,23.00
2019-01-30T03:15:23.470Z,22.70
2019-01-30T03:17:58.695Z,22.03
2019-01-30T03:20:33.547Z,20.10
2019-01-30T03:23:07.033Z,21.30
2019-01-30T03:25:41.302Z,19.07
2019-01-30T03:28:15.667Z,21.00
2019-01-30T03:30:49.325Z,22.40
2019-01-30T03:33:24.003Z,22.13
2019-01-30T03:35:59.298Z,24.07
2019-01-30T03:38:35.198Z,16.70
2019-01-30T03:41:08.568Z,17.93
2019-01-30T03:43:44.826Z,18.87
2019-01-30T03:46:22.399Z,19.50
2019-01-30T03:48:58.716Z,19.13
2019-01-30T03:51:32.616Z,19.77
2019-01-30T03:54:07.071Z,17.30
2019-01-30T03:56:43.591Z,21.07
2019-01-30T03:59:19.460Z,21.02
2019-01-30T04:01:52.978Z,18.00
2019-01-30T04:04:26.142Z,20.43
2019-01-30T04:06:59.161Z,19.37
2019-01-30T04:09:33.959Z,18.70
2019-01-30T04:12:07.450Z,20.40
2019-01-30T04:14:42.801Z,22.33
2019-01-30T04:17:18.352Z,23.23
2019-01-30T04:19:54.431Z,23.83
2019-01-30T04:22:29.208Z,22.33
2019-01-30T04:25:08.367Z,21.13
2019-01-30T04:27:43.699Z,19.43
2019-01-30T04:30:25.858Z,25.07
2019-01-30T04:33:01.072Z,21.67
2019-01-30T04:35:37.545Z,24.57
2019-01-30T04:38:12.931Z,26.73
2019-01-30T04:40:55.410Z,31.87
2019-01-30T04:43:30.770Z,30.50
2019-01-30T04:46:03.908Z,37.30
2019-01-30T04:48:36.798Z,33.57
2019-01-30T04:51:10.542Z,32.97
2019-01-30T04:53:43.618Z,25.40
2019-01-30T04:56:16.685Z,25.27
2019-01-30T04:58:49.938Z,25.00
2019-01-30T05:01:24.122Z,29.57
2019-01-30T05:03:57.412Z,28.57
2019-01-30T05:06:30.556Z,27.47
2019-01-30T05:09:06.061Z,24.77
2019-01-30T05:11:39.180Z,27.63
2019-01-30T05:14:14.515Z,25.73
2019-01-30T05:16:47.619Z,25.68
2019-01-30T05:19:21.676Z,22.07
2019-01-30T05:21:55.346Z,27.23
2019-01-30T05:24:28.676Z,22.70
2019-01-30T05:27:04.070Z,22.67
2019-01-30T05:29:38.329Z,23.50
2019-01-30T05:32:12.564Z,22.80
2019-01-30T05:34:46.921Z,24.73
2019-01-30T05:37:22.142Z,24.13
2019-01-30T05:39:55.317Z,23.70
2019-01-30T05:42:29.030Z,29.17
2019-01-30T05:45:03.054Z,24.33
2019-01-30T05:47:37.475Z,23.57
2019-01-30T05:50:12.156Z,23.70
2019-01-30T05:52:47.131Z,22.20
2019-01-30T05:55:20.343Z,22.67
2019-01-30T05:57:53.545Z,18.97
2019-01-30T06:00:35.751Z,22.40
2019-01-30T06:03:10.181Z,21.97
2019-01-30T06:05:44.082Z,21.87
2019-01-30T06:08:17.170Z,23.77
2019-01-30T06:10:51.398Z,21.57
2019-01-30T06:13:24.436Z,24.67
2019-01-30T06:15:57.397Z,24.50
2019-01-30T06:18:30.770Z,24.80
2019-01-30T06:21:04.106Z,26.30
2019-01-30T06:23:37.560Z,27.67
2019-01-30T06:26:11.858Z,25.90
2019-01-30T06:28:46.107Z,24.87
2019-01-30T06:31:19.122Z,24.27
2019-01-30T06:33:52.366Z,19.93
2019-01-30T06:36:29.458Z,20.87
2019-01-30T06:39:05.831Z,25.27
2019-01-30T06:41:41.767Z,35.53
2019-01-30T06:44:18.564Z,32.73
2019-01-30T06:46:54.197Z,47.13
2019-01-30T06:49:28.425Z,38.00
2019-01-30T06:52:04.142Z,38.20
2019-01-30T06:54:41.297Z,38.77
2019-01-30T06:57:16.901Z,38.13
2019-01-30T06:59:52.471Z,36.93
2019-01-30T07:02:32.127Z,36.27
2019-01-30T07:05:01.771Z,38.40
2019-01-30T07:07:35.918Z,40.43
2019-01-30T07:10:16.456Z,35.90
2019-01-30T07:12:53.762Z,32.07
2019-01-30T07:15:29.820Z,34.57
2019-01-30T07:18:05.499Z,31.07
2019-01-30T07:20:42.274Z,34.47
2019-01-30T07:23:16.065Z,32.60
2019-01-30T07:25:50.330Z,37.17
2019-01-30T07:28:26.388Z,34.83
2019-01-30T07:31:03.576Z,31.97
2019-01-30T07:33:39.038Z,37.40
2019-01-30T07:36:16.153Z,33.40
2019-01-30T07:38:51.593Z,39.23
2019-01-30T07:41:27.294Z,40.93
2019-01-30T07:44:01.880Z,34.97
2019-01-30T07:46:36.607Z,32.53
2019-01-30T07:49:12.720Z,35.53
2019-01-30T07:51:47.705Z,28.47
2019-01-30T07:54:24.494Z,25.00
2019-01-30T07:56:59.765Z,27.77
2019-01-30T07:59:36.172Z,27.57
2019-01-30T08:02:11.806Z,24.13
2019-01-30T08:04:47.069Z,29.63
2019-01-30T08:07:22.605Z,29.93
2019-01-30T08:09:57.255Z,29.53
2019-01-30T08:12:33.021Z,27.53
2019-01-30T08:15:08.736Z,25.43
2019-01-30T08:17:44.533Z,28.67
2019-01-30T08:20:23.030Z,26.83
2019-01-30T08:22:59.580Z,25.40
2019-01-30T08:25:36.617Z,27.20
2019-01-30T08:28:12.057Z,26.10
2019-01-30T08:30:47.846Z,22.07
2019-01-30T08:33:24.842Z,24.60
2019-01-30T08:36:01.887Z,24.33
2019-01-30T08:38:38.377Z,25.95
2019-01-30T08:41:11.547Z,25.53
2019-01-30T08:43:47.978Z,27.40
2019-01-30T08:46:23.331Z,29.30
2019-01-30T08:49:00.423Z,27.90
2019-01-30T08:51:34.990Z,29.83
2019-01-30T08:54:12.092Z,30.07
2019-01-30T08:56:53.080Z,29.07
2019-01-30T08:59:25.734Z,26.43
2019-01-30T09:01:59.947Z,25.33
2019-01-30T09:04:33.279Z,28.40
2019-01-30T09:07:08.564Z,25.43
2019-01-30T09:09:47.092Z,25.87
2019-01-30T09:12:23.160Z,31.57
2019-01-30T09:14:59.236Z,29.57
2019-01-30T09:17:34.561Z,29.00
2019-01-30T09:20:11.243Z,26.23
2019-01-30T09:22:46.362Z,25.97
2019-01-30T09:25:23.212Z,24.83
2019-01-30T09:27:58.585Z,26.73
2019-01-30T09:30:39.070Z,27.73
2019-01-30T09:33:25.597Z,25.43
2019-01-30T09:35:56.077Z,27.30
2019-01-30T09:38:32.544Z,25.53
2019-01-30T09:41:09.543Z,25.23
2019-01-30T09:43:45.835Z,23.13
2019-01-30T09:46:21.834Z,25.77
2019-01-30T09:48:56.442Z,25.67
2019-01-30T09:51:30.723Z,26.03
2019-01-30T09:54:08.101Z,28.63
2019-01-30T09:56:45.266Z,27.25
2019-01-30T09:59:21.793Z,27.57
2019-01-30T10:01:58.288Z,29.53
2019-01-30T10:04:34.279Z,30.60
2019-01-30T10:07:09.920Z,30.13
2019-01-30T10:09:44.432Z,34.37
2019-01-30T10:12:20.037Z,39.53
2019-01-30T10:14:56.991Z,40.43
2019-01-30T10:17:34.672Z,38.20
2019-01-30T10:20:12.654Z,47.60
2019-01-30T10:22:45.757Z,49.87
2019-01-30T10:25:20.303Z,45.80
2019-01-30T10:27:54.117Z,42.67
2019-01-30T10:30:36.082Z,40.10
2019-01-30T10:33:12.199Z,45.70
2019-01-30T10:35:49.399Z,43.63
2019-01-30T10:38:25.031Z,48.63
2019-01-30T10:41:00.938Z,38.47
2019-01-30T10:43:38.234Z,40.03
2019-01-30T10:46:15.934Z,37.23
2019-01-30T10:48:51.407Z,43.90
2019-01-30T10:51:27.422Z,44.87
2019-01-30T10:54:02.632Z,44.73
2019-01-30T10:56:37.170Z,44.63
2019-01-30T10:59:13.110Z,40.77
2019-01-30T11:01:50.655Z,42.13
2019-01-30T11:04:24.231Z,50.23
2019-01-30T11:06:59.525Z,49.40
2019-01-30T11:09:34.462Z,42.40
2019-01-30T11:12:11.395Z,33.27
2019-01-30T11:14:46.644Z,47.60
2019-01-30T11:17:22.682Z,41.83
2019-01-30T11:19:58.819Z,46.07
2019-01-30T11:22:34.109Z,47.50
2019-01-30T11:25:15.205Z,46.60
2019-01-30T11:27:50.838Z,41.50
2019-01-30T11:30:25.342Z,39.07
2019-01-30T11:33:01.990Z,133.60
2019-01-30T11:35:39.779Z,44.33
2019-01-30T11:41:47.243Z,47.70
2019-01-30T11:44:20.945Z,42.90
2019-01-30T11:46:54.615Z,48.43
2019-01-30T11:49:45.725Z,49.50
2019-01-30T11:52:24.058Z,44.57
2019-01-30T11:55:05.683Z,46.43
2019-01-30T12:02:02.914Z,42.45
2019-01-30T12:05:45.483Z,44.60
2019-01-30T12:16:03.396Z,45.50
2019-01-30T12:18:48.574Z,38.40
2019-01-30T12:21:34.162Z,39.53
2019-01-30T12:24:25.182Z,37.17
2019-01-30T12:27:26.700Z,36.57
2019-01-30T12:30:07.542Z,38.37
2019-01-30T12:33:17.172Z,41.27
2019-01-30T12:35:30.355Z,45.73
2019-01-30T12:38:04.429Z,56.43
2019-01-30T12:40:53.825Z,59.00
2019-01-30T12:43:27.499Z,51.30
2019-01-30T12:46:02.015Z,63.33
2019-01-30T12:48:39.878Z,55.73
2019-01-30T12:51:13.001Z,48.00
2019-01-30T12:53:46.305Z,51.27
2019-01-30T12:56:19.543Z,51.50
2019-01-30T12:58:52.744Z,50.53
2019-01-30T13:01:25.909Z,56.13
2019-01-30T13:03:59.460Z,47.83
2019-01-30T13:06:34.733Z,40.13
2019-01-30T13:09:10.847Z,41.50
2019-01-30T13:11:44.009Z,41.50
2019-01-30T13:14:30.689Z,38.23
2019-01-30T13:17:07.257Z,37.03
2019-01-30T13:19:48.158Z,44.47
2019-01-30T13:22:52.774Z,39.87
2019-01-30T13:25:37.356Z,42.50
2019-01-30T13:28:13.979Z,41.50
2019-01-30T13:30:52.571Z,43.90
2019-01-30T13:37:21.143Z,40.90
2019-01-30T13:40:06.552Z,46.73
2019-01-30T13:42:40.495Z,37.00
2019-01-30T13:45:48.432Z,40.00
2019-01-30T13:48:31.608Z,40.37
2019-01-30T13:51:25.098Z,37.47
2019-01-30T13:54:08.307Z,42.93
2019-01-30T14:00:21.735Z,54.00
2019-01-30T14:02:54.734Z,34.53
2019-01-30T14:05:41.167Z,31.87
2019-01-30T14:08:16.893Z,28.93
2019-01-30T14:10:54.560Z,30.13
2019-01-30T14:13:48.985Z,28.60
2019-01-30T14:16:22.311Z,27.83
2019-01-30T14:18:55.303Z,25.87
2019-01-30T14:21:28.502Z,31.07
2019-01-30T14:24:02.199Z,29.13
2019-01-30T14:26:38.786Z,33.77
2019-01-30T14:29:11.957Z,29.47
2019-01-30T14:31:47.159Z,33.97
2019-01-30T14:34:20.261Z,28.57
2019-01-30T14:36:54.582Z,28.77
2019-01-30T14:39:43.193Z,25.13
2019-01-30T14:42:25.917Z,28.63
2019-01-30T14:44:59.186Z,32.37
2019-01-30T14:47:32.500Z,35.57
2019-01-30T14:50:06.603Z,29.77
2019-01-30T14:52:39.797Z,36.00
2019-01-30T14:55:14.478Z,29.60
2019-01-30T14:57:48.278Z,33.23
2019-01-30T15:00:23.832Z,33.93
2019-01-30T15:02:56.973Z,30.67
2019-01-30T15:05:31.252Z,28.60
2019-01-30T15:08:20.092Z,28.90
2019-01-30T15:10:53.174Z,26.50
2019-01-30T15:13:30.517Z,24.07
2019-01-30T15:16:04.220Z,26.43
2019-01-30T15:18:37.772Z,31.77
2019-01-30T15:21:13.180Z,26.43
2019-01-30T15:23:46.334Z,33.23
2019-01-30T15:26:20.638Z,27.37
2019-01-30T15:28:54.462Z,27.80
2019-01-30T15:31:27.302Z,29.67
2019-01-30T15:34:00.557Z,34.80
2019-01-30T15:36:33.583Z,25.20
2019-01-30T15:39:08.848Z,28.03
2019-01-30T15:41:42.087Z,25.33
2019-01-30T15:44:16.410Z,25.30
2019-01-30T15:46:50.557Z,25.00
2019-01-30T15:49:25.252Z,27.33
2019-01-30T15:51:58.324Z,29.00
2019-01-30T15:54:33.675Z,29.77
2019-01-30T15:57:09.357Z,30.70
2019-01-30T15:59:42.809Z,32.07
2019-01-30T16:02:21.827Z,28.47
2019-01-30T16:04:55.411Z,28.77
2019-01-30T16:07:29.891Z,26.90
2019-01-30T16:10:03.511Z,28.00
2019-01-30T16:12:44.012Z,25.47
2019-01-30T16:15:21.325Z,26.07
2019-01-30T16:17:54.996Z,28.23
2019-01-30T16:20:28.329Z,33.43
2019-01-30T16:23:01.901Z,23.80
2019-01-30T16:25:35.525Z,27.23
2019-01-30T16:28:11.726Z,26.37
2019-01-30T16:30:50.645Z,18.13
2019-01-30T16:33:24.137Z,23.83
2019-01-30T16:36:03.168Z,18.40
2019-01-30T16:38:36.156Z,27.50
2019-01-30T16:41:11.279Z,20.87
2019-01-30T16:44:00.195Z,22.80
2019-01-30T16:46:40.009Z,20.03
2019-01-30T16:49:13.003Z,26.50
2019-01-30T16:51:47.202Z,26.07
2019-01-30T16:54:20.577Z,23.37
2019-01-30T16:56:57.496Z,21.80
2019-01-30T16:59:30.326Z,22.40
2019-01-30T17:02:03.569Z,24.67
2019-01-30T17:04:42.294Z,30.23
2019-01-30T17:07:15.607Z,27.40
2019-01-30T17:09:48.473Z,25.43
2019-01-30T17:12:23.115Z,24.70
2019-01-30T17:14:56.260Z,20.87
2019-01-30T17:17:31.569Z,20.27
2019-01-30T17:20:11.278Z,26.07
2019-01-30T17:22:47.869Z,25.95
2019-01-30T17:25:24.752Z,26.47
2019-01-30T17:28:02.510Z,25.53
2019-01-30T17:30:41.751Z,28.03
2019-01-30T17:33:15.076Z,23.60
2019-01-30T17:35:48.705Z,22.93
2019-01-30T17:38:36.081Z,21.87
2019-01-30T17:41:13.719Z,24.87
2019-01-30T17:43:49.437Z,18.40
2019-01-30T17:46:22.903Z,24.47
2019-01-30T17:48:56.243Z,19.17
2019-01-30T17:51:29.645Z,22.80
2019-01-30T17:54:03.339Z,25.63
2019-01-30T17:56:36.554Z,23.20
2019-01-30T17:59:16.895Z,21.47
2019-01-30T18:04:47.984Z,25.17
2019-01-30T18:07:15.406Z,22.00
2019-01-30T18:09:48.814Z,20.77
2019-01-30T18:12:22.017Z,25.87
2019-01-30T18:15:04.913Z,21.10
2019-01-30T18:18:44.385Z,19.37
2019-01-30T18:27:46.818Z,16.27
2019-01-30T18:30:24.235Z,18.40
2019-01-30T18:33:45.865Z,21.70
2019-01-30T18:36:19.055Z,20.60
2019-01-30T18:38:52.136Z,22.03
2019-01-30T18:41:27.128Z,21.87
2019-01-30T18:44:02.144Z,22.97
2019-01-30T18:46:35.226Z,28.83
2019-01-30T18:49:37.019Z,22.07
2019-01-30T18:52:19.616Z,33.30
2019-01-30T18:55:32.144Z,22.57
2019-01-30T19:04:58.591Z,22.52
2019-01-30T19:14:30.898Z,19.87
2019-01-30T19:33:14.032Z,24.30
2019-01-30T19:36:03.187Z,24.23
2019-01-30T19:38:39.778Z,19.63
2019-01-30T19:41:13.206Z,21.40
2019-01-30T19:43:46.474Z,22.90
2019-01-30T19:46:20.593Z,25.63
2019-01-30T19:48:53.402Z,27.50
2019-01-30T19:51:28.098Z,26.30
2019-01-30T19:54:01.482Z,24.37
2019-01-30T19:56:35.275Z,22.43
2019-01-30T19:59:17.018Z,21.43
2019-01-30T20:01:42.837Z,21.43
2019-01-30T20:04:15.972Z,20.40
2019-01-30T20:06:48.921Z,21.67
2019-01-30T20:09:24.663Z,23.53
2019-01-30T20:12:28.278Z,27.48
2019-01-30T20:18:38.351Z,22.87
2019-01-30T20:21:29.201Z,24.17
2019-01-30T20:24:07.016Z,21.20
2019-01-30T20:27:37.882Z,22.40
2019-01-30T20:30:31.722Z,20.63
2019-01-30T20:33:32.899Z,20.43
2019-01-30T20:36:10.644Z,23.00
2019-01-30T20:38:43.463Z,25.57
2019-01-30T20:41:16.674Z,21.00
2019-01-30T20:43:49.426Z,19.63
2019-01-30T20:46:29.355Z,20.60
2019-01-30T20:49:02.194Z,21.67
2019-01-30T20:51:35.000Z,22.30
2019-01-30T20:54:11.066Z,21.93
2019-01-30T20:56:44.373Z,20.40
2019-01-30T21:00:14.798Z,24.77
2019-01-30T21:03:22.212Z,20.83
2019-01-30T21:38:07.795Z,23.00
2019-01-30T21:40:40.756Z,23.90
2019-01-30T21:43:14.022Z,21.70
2019-01-30T21:45:50.006Z,31.07
2019-01-30T21:48:22.824Z,24.30
2019-01-30T21:50:55.745Z,24.37
2019-01-30T21:53:34.376Z,21.67
2019-01-30T21:56:58.091Z,15.77
2019-01-30T21:59:30.975Z,24.13
2019-01-30T22:02:08.379Z,23.40
2019-01-30T22:04:38.889Z,23.52
2019-01-30T22:07:12.271Z,22.47
2019-01-30T22:09:46.108Z,23.87
2019-01-30T22:12:19.026Z,25.60
2019-01-30T22:14:52.050Z,20.20
2019-01-30T22:17:24.879Z,23.70
2019-01-30T22:19:57.743Z,22.57
2019-01-30T22:22:30.563Z,23.27
2019-01-30T22:25:03.370Z,20.87
2019-01-30T22:27:36.171Z,24.40
2019-01-30T22:30:12.872Z,22.50
2019-01-30T22:32:47.177Z,24.07
2019-01-30T22:35:20.021Z,22.23
2019-01-30T22:37:53.109Z,29.07
2019-01-30T22:40:26.056Z,18.90
2019-01-30T22:42:58.971Z,21.40
2019-01-30T22:45:32.032Z,22.00
2019-01-30T22:48:05.124Z,24.23
2019-01-30T22:50:38.906Z,22.87
2019-01-30T22:53:12.168Z,26.30
2019-01-30T22:55:45.050Z,23.47
2019-01-30T22:58:19.378Z,24.77
2019-01-30T23:01:13.349Z,21.80
2019-01-30T23:03:58.217Z,24.40
2019-01-30T23:06:51.793Z,19.43
2019-01-30T23:10:26.884Z,21.53
2019-01-30T23:13:36.435Z,22.13
2019-01-30T23:16:44.271Z,18.80
2019-01-30T23:20:01.390Z,19.40
2019-01-30T23:23:04.740Z,19.73
2019-01-30T23:25:58.471Z,20.67
2019-01-30T23:29:01.930Z,24.20
2019-01-30T23:32:14.260Z,21.40
2019-01-30T23:35:34.509Z,18.70
2019-01-30T23:38:17.966Z,22.53
2019-01-30T23:41:33.542Z,18.33
2019-01-30T23:44:35.781Z,21.50
2019-01-30T23:47:34.093Z,15.27
2019-01-30T23:51:04.635Z,17.77
2019-01-30T23:54:11.000Z,15.93
2019-01-30T23:57:23.368Z,20.73
